createdAt,value
2023-06-08T00:00:10.448Z,3.25
2023-06-08T00:02:37.875Z,2.20
2023-06-08T00:05:06.260Z,3.50
2023-06-08T00:07:35.771Z,3.00
2023-06-08T00:10:02.974Z,2.45
2023-06-08T00:12:30.038Z,1.95
2023-06-08T00:14:56.842Z,3.17
2023-06-08T00:17:25.272Z,2.45
2023-06-08T00:19:53.890Z,3.60
2023-06-08T00:22:22.633Z,3.00
2023-06-08T00:24:49.932Z,3.28
2023-06-08T00:27:16.809Z,3.63
2023-06-08T00:29:43.672Z,2.97
2023-06-08T00:32:10.597Z,2.88
2023-06-08T00:34:37.511Z,2.47
2023-06-08T00:37:04.545Z,2.95
2023-06-08T00:39:31.702Z,3.33
2023-06-08T00:41:58.528Z,4.30
2023-06-08T00:44:25.437Z,4.03
2023-06-08T00:46:53.164Z,3.72
2023-06-08T00:49:20.801Z,3.93
2023-06-08T00:51:48.444Z,3.97
2023-06-08T00:54:17.179Z,4.32
2023-06-08T00:56:50.259Z,4.30
2023-06-08T00:59:17.941Z,5.25
2023-06-08T01:01:46.236Z,3.87
2023-06-08T16:52:02.719Z,5.95
2023-06-08T16:54:29.552Z,6.15
2023-06-08T16:56:56.369Z,5.80
2023-06-08T16:59:23.428Z,5.85
2023-06-08T17:01:50.371Z,5.72
2023-06-08T17:04:20.395Z,5.80
2023-06-08T17:06:47.304Z,5.78
2023-06-08T17:09:14.220Z,7.20
2023-06-08T17:11:41.148Z,6.68
2023-06-08T17:14:08.466Z,6.85
2023-06-08T17:16:35.876Z,6.83
2023-06-08T17:19:02.835Z,7.07
2023-06-08T17:21:29.770Z,6.27
2023-06-08T17:23:56.862Z,6.55
2023-06-08T17:26:23.852Z,6.40
2023-06-08T17:28:52.479Z,8.18
2023-06-08T17:31:19.435Z,6.28
2023-06-08T17:33:46.441Z,5.30
2023-06-08T17:36:13.419Z,6.53
2023-06-08T17:38:40.390Z,6.00
2023-06-08T17:41:07.703Z,6.37
2023-06-08T17:43:48.611Z,6.15
2023-06-08T17:46:16.968Z,5.80
2023-06-08T17:48:44.492Z,6.20
2023-06-08T17:51:11.741Z,5.55
2023-06-08T17:53:38.785Z,5.75
2023-06-08T17:56:06.117Z,4.70
2023-06-08T17:58:32.992Z,5.43
2023-06-08T18:01:01.076Z,5.43
2023-06-08T18:03:28.062Z,5.30
2023-06-08T18:05:55.199Z,5.50
2023-06-08T18:08:22.193Z,6.07
2023-06-08T18:10:49.061Z,7.43
2023-06-08T18:13:17.033Z,6.70
2023-06-08T18:15:44.284Z,8.00
2023-06-08T18:18:12.953Z,8.30
2023-06-08T18:20:40.332Z,9.93
2023-06-08T18:23:07.181Z,10.07
2023-06-08T18:25:34.050Z,10.35
2023-06-08T18:28:01.467Z,8.45
2023-06-08T18:30:29.673Z,8.25
2023-06-08T18:32:56.768Z,10.70
2023-06-08T18:35:23.682Z,9.07
2023-06-08T18:37:50.758Z,8.40
2023-06-08T18:40:17.896Z,9.27
2023-06-08T18:42:45.107Z,10.35
2023-06-08T18:45:12.057Z,6.72
2023-06-08T18:47:39.039Z,8.05
2023-06-08T18:50:12.686Z,6.60
2023-06-08T18:52:40.395Z,6.57
2023-06-08T18:55:10.788Z,7.07
2023-06-08T18:57:38.445Z,6.10
2023-06-08T19:00:07.869Z,6.47
2023-06-08T19:02:35.136Z,6.97
2023-06-08T19:05:05.619Z,7.17
2023-06-08T19:07:33.554Z,6.30
2023-06-08T19:10:03.423Z,6.40
2023-06-08T19:12:33.264Z,6.53
2023-06-08T19:15:00.143Z,6.85
2023-06-08T19:17:27.021Z,7.10
2023-06-08T19:19:54.752Z,6.50
2023-06-08T19:22:22.757Z,6.68
2023-06-08T19:24:49.799Z,6.80
2023-06-08T19:27:16.687Z,7.13
2023-06-08T19:29:43.593Z,6.72
2023-06-08T19:32:10.769Z,7.10
2023-06-08T19:34:37.762Z,7.20
2023-06-08T19:37:05.137Z,7.20
2023-06-08T19:39:32.146Z,6.63
2023-06-08T19:42:03.366Z,7.15
2023-06-08T19:44:31.307Z,8.15
2023-06-08T19:46:58.446Z,8.95
2023-06-08T19:49:25.991Z,8.73
2023-06-08T19:51:54.261Z,8.48
2023-06-08T19:54:23.736Z,8.52
2023-06-08T19:56:51.681Z,7.57
2023-06-08T19:59:19.638Z,8.52
2023-06-08T20:01:48.330Z,8.65
2023-06-08T20:04:16.669Z,8.57
2023-06-08T20:06:51.052Z,7.85
2023-06-08T20:09:20.645Z,8.95
2023-06-08T20:11:51.510Z,7.28
2023-06-08T20:14:20.138Z,6.90
2023-06-08T20:16:50.027Z,7.15
2023-06-08T20:19:19.976Z,7.18
2023-06-08T20:21:46.799Z,7.32
2023-06-08T20:24:13.762Z,7.82
2023-06-08T20:26:42.827Z,6.95
2023-06-08T20:29:10.236Z,8.73
2023-06-08T20:31:40.885Z,7.13
2023-06-08T20:34:12.327Z,7.75
2023-06-08T20:36:39.419Z,7.03
2023-06-08T20:39:07.316Z,9.27
2023-06-08T20:41:34.306Z,9.00
2023-06-08T20:44:04.681Z,8.85
2023-06-08T20:46:33.711Z,7.15
2023-06-08T20:49:03.923Z,8.48
2023-06-08T20:51:31.571Z,8.30
2023-06-08T20:53:58.587Z,7.57
2023-06-08T20:56:27.121Z,6.63
2023-06-08T20:58:54.310Z,8.00
2023-06-08T21:01:21.206Z,7.10
2023-06-08T21:03:49.672Z,7.70
2023-06-08T21:06:17.220Z,7.15
2023-06-08T21:08:44.236Z,6.78
2023-06-08T21:11:11.216Z,7.47
2023-06-08T21:13:38.161Z,8.83
2023-06-08T21:16:05.490Z,7.13
2023-06-08T21:18:32.613Z,7.10
2023-06-08T21:20:59.547Z,7.55
2023-06-08T21:23:26.567Z,7.85
2023-06-08T21:25:53.468Z,8.27
2023-06-08T21:28:20.457Z,7.97
2023-06-08T21:30:47.254Z,8.13
2023-06-08T21:33:14.653Z,7.35
2023-06-08T21:35:42.720Z,7.88
2023-06-08T21:38:10.492Z,7.70
2023-06-08T21:40:37.386Z,6.15
2023-06-08T21:43:04.224Z,6.60
2023-06-08T21:45:31.150Z,6.28
2023-06-08T21:47:58.533Z,6.07
2023-06-08T21:50:25.683Z,6.68
2023-06-08T21:52:52.622Z,6.30
2023-06-08T21:55:19.471Z,6.57
2023-06-08T21:57:46.334Z,7.70
2023-06-08T22:00:14.372Z,8.20
2023-06-08T22:02:41.435Z,7.87
2023-06-08T22:05:08.947Z,8.13
2023-06-08T22:07:36.324Z,9.18
2023-06-08T22:10:03.494Z,8.48
2023-06-08T22:12:30.344Z,9.20
2023-06-08T22:14:59.797Z,9.20
2023-06-08T22:17:26.847Z,10.02
2023-06-08T22:20:06.119Z,8.18
2023-06-08T22:22:35.156Z,8.65
2023-06-08T22:25:02.090Z,8.30
2023-06-08T22:27:29.746Z,8.95
2023-06-08T22:29:56.807Z,6.60
2023-06-08T22:32:23.690Z,6.63
2023-06-08T22:34:50.513Z,7.00
2023-06-08T22:37:17.346Z,7.13
2023-06-08T22:39:44.222Z,6.72
2023-06-08T22:42:11.309Z,7.18
2023-06-08T22:44:38.208Z,7.65
2023-06-08T22:47:06.321Z,6.73
2023-06-08T22:49:34.121Z,7.13
2023-06-08T22:52:04.308Z,7.05
2023-06-08T22:54:31.447Z,6.30
2023-06-08T22:57:01.991Z,7.32
2023-06-08T22:59:28.958Z,6.65
2023-06-08T23:01:55.984Z,6.82
2023-06-08T23:04:22.888Z,7.45
2023-06-08T23:06:50.462Z,6.90
2023-06-08T23:09:17.312Z,7.22
2023-06-08T23:11:46.109Z,8.00
2023-06-08T23:14:13.526Z,8.10
2023-06-08T23:16:40.617Z,8.65
2023-06-08T23:19:07.930Z,8.85
2023-06-08T23:21:37.063Z,7.72
2023-06-08T23:24:04.398Z,8.48
2023-06-08T23:26:31.441Z,9.20
2023-06-08T23:28:59.719Z,9.15
2023-06-08T23:31:26.632Z,10.10
2023-06-08T23:33:53.686Z,10.43
2023-06-08T23:36:21.033Z,10.82
2023-06-08T23:38:48.340Z,10.50
2023-06-08T23:41:15.374Z,11.75
2023-06-08T23:43:42.195Z,10.93
2023-06-08T23:46:13.846Z,9.50
2023-06-08T23:48:41.357Z,9.15
2023-06-08T23:51:08.329Z,9.67
2023-06-08T23:53:35.360Z,9.60
2023-06-08T23:56:02.225Z,8.27
2023-06-08T23:58:29.091Z,8.85
